sensor_id;sensor_type;location;lat;lon;timestamp;temperature;humidity
42715;DHT22;28351;51.480;5.706;2022-07-12T00:01:09;15.80;99.90
42715;DHT22;28351;51.480;5.706;2022-07-12T00:03:34;15.70;99.90
42715;DHT22;28351;51.480;5.706;2022-07-12T00:06:00;15.70;99.90
42715;DHT22;28351;51.480;5.706;2022-07-12T00:08:26;15.60;99.90
42715;DHT22;28351;51.480;5.706;2022-07-12T00:10:51;15.60;99.90
42715;DHT22;28351;51.480;5.706;2022-07-12T00:13:17;15.50;99.90
42715;DHT22;28351;51.480;5.706;2022-07-12T00:15:43;15.50;99.90
42715;DHT22;28351;51.480;5.706;2022-07-12T00:18:09;15.50;99.90
42715;DHT22;28351;51.480;5.706;2022-07-12T00:20:35;15.40;99.90
42715;DHT22;28351;51.480;5.706;2022-07-12T00:23:03;15.40;99.90
42715;DHT22;28351;51.480;5.706;2022-07-12T00:25:29;15.30;99.90
42715;DHT22;28351;51.480;5.706;2022-07-12T00:27:55;15.20;99.90
42715;DHT22;28351;51.480;5.706;2022-07-12T00:30:21;15.30;99.90
42715;DHT22;28351;51.480;5.706;2022-07-12T00:32:46;15.30;99.90
42715;DHT22;28351;51.480;5.706;2022-07-12T00:35:12;15.20;99.90
42715;DHT22;28351;51.480;5.706;2022-07-12T00:37:38;15.20;99.90
42715;DHT22;28351;51.480;5.706;2022-07-12T00:40:04;15.20;99.90
42715;DHT22;28351;51.480;5.706;2022-07-12T00:42:30;15.20;99.90
42715;DHT22;28351;51.480;5.706;2022-07-12T00:44:55;15.20;99.90
42715;DHT22;28351;51.480;5.706;2022-07-12T00:49:55;15.20;99.90
42715;DHT22;28351;51.480;5.706;2022-07-12T00:52:21;15.20;99.90
42715;DHT22;28351;51.480;5.706;2022-07-12T00:54:46;15.20;99.90
42715;DHT22;28351;51.480;5.706;2022-07-12T00:57:15;15.20;99.90
42715;DHT22;28351;51.480;5.706;2022-07-12T00:59:40;15.10;99.90
42715;DHT22;28351;51.480;5.706;2022-07-12T01:02:06;15.00;99.90
42715;DHT22;28351;51.480;5.706;2022-07-12T01:04:32;15.00;99.90
42715;DHT22;28351;51.480;5.706;2022-07-12T01:06:58;15.00;99.90
42715;DHT22;28351;51.480;5.706;2022-07-12T01:09:24;14.90;99.90
42715;DHT22;28351;51.480;5.706;2022-07-12T01:11:49;14.90;99.90
42715;DHT22;28351;51.480;5.706;2022-07-12T01:14:15;14.90;99.90
42715;DHT22;28351;51.480;5.706;2022-07-12T01:16:41;14.90;99.90
42715;DHT22;28351;51.480;5.706;2022-07-12T01:19:06;14.90;99.90
42715;DHT22;28351;51.480;5.706;2022-07-12T01:21:32;14.80;99.90
42715;DHT22;28351;51.480;5.706;2022-07-12T01:23:59;14.90;99.90
42715;DHT22;28351;51.480;5.706;2022-07-12T01:26:25;14.80;99.90
42715;DHT22;28351;51.480;5.706;2022-07-12T01:28:52;14.80;99.90
42715;DHT22;28351;51.480;5.706;2022-07-12T01:31:18;14.70;99.90
42715;DHT22;28351;51.480;5.706;2022-07-12T01:33:44;14.80;99.90
42715;DHT22;28351;51.480;5.706;2022-07-12T01:36:09;14.70;99.90
42715;DHT22;28351;51.480;5.706;2022-07-12T01:38:35;14.70;99.90
42715;DHT22;28351;51.480;5.706;2022-07-12T01:41:01;14.70;99.90
42715;DHT22;28351;51.480;5.706;2022-07-12T01:43:28;14.70;99.90
42715;DHT22;28351;51.480;5.706;2022-07-12T01:45:53;14.70;99.90
42715;DHT22;28351;51.480;5.706;2022-07-12T01:48:19;14.60;99.90
42715;DHT22;28351;51.480;5.706;2022-07-12T01:50:44;14.60;99.90
42715;DHT22;28351;51.480;5.706;2022-07-12T01:53:10;14.60;99.90
42715;DHT22;28351;51.480;5.706;2022-07-12T01:55:37;14.60;99.90
42715;DHT22;28351;51.480;5.706;2022-07-12T01:58:02;14.60;99.90
42715;DHT22;28351;51.480;5.706;2022-07-12T02:00:31;14.50;99.90
42715;DHT22;28351;51.480;5.706;2022-07-12T02:02:57;14.50;99.90
42715;DHT22;28351;51.480;5.706;2022-07-12T02:05:22;14.50;99.90
42715;DHT22;28351;51.480;5.706;2022-07-12T02:07:48;14.50;99.90
42715;DHT22;28351;51.480;5.706;2022-07-12T02:10:14;14.40;99.90
42715;DHT22;28351;51.480;5.706;2022-07-12T02:12:39;14.30;99.90
42715;DHT22;28351;51.480;5.706;2022-07-12T02:15:05;14.30;99.90
42715;DHT22;28351;51.480;5.706;2022-07-12T02:17:31;14.30;99.90
42715;DHT22;28351;51.480;5.706;2022-07-12T02:19:57;14.20;99.90
42715;DHT22;28351;51.480;5.706;2022-07-12T02:22:25;14.20;99.90
42715;DHT22;28351;51.480;5.706;2022-07-12T02:24:50;14.10;99.90
42715;DHT22;28351;51.480;5.706;2022-07-12T02:27:16;14.10;99.90
42715;DHT22;28351;51.480;5.706;2022-07-12T02:29:41;14.10;99.90
42715;DHT22;28351;51.480;5.706;2022-07-12T02:32:07;14.00;99.90
42715;DHT22;28351;51.480;5.706;2022-07-12T02:34:32;14.00;99.90
42715;DHT22;28351;51.480;5.706;2022-07-12T02:36:58;14.00;99.90
42715;DHT22;28351;51.480;5.706;2022-07-12T02:39:23;14.00;99.90
42715;DHT22;28351;51.480;5.706;2022-07-12T02:41:49;13.90;99.90
42715;DHT22;28351;51.480;5.706;2022-07-12T02:44:15;13.90;99.90
42715;DHT22;28351;51.480;5.706;2022-07-12T02:46:40;13.90;99.90
42715;DHT22;28351;51.480;5.706;2022-07-12T02:49:06;13.90;99.90
42715;DHT22;28351;51.480;5.706;2022-07-12T02:51:31;13.80;99.90
42715;DHT22;28351;51.480;5.706;2022-07-12T02:53:57;13.80;99.90
42715;DHT22;28351;51.480;5.706;2022-07-12T02:56:23;13.70;99.90
42715;DHT22;28351;51.480;5.706;2022-07-12T02:58:49;13.60;99.90
42715;DHT22;28351;51.480;5.706;2022-07-12T03:01:14;13.70;99.90
42715;DHT22;28351;51.480;5.706;2022-07-12T03:03:40;13.70;99.90
42715;DHT22;28351;51.480;5.706;2022-07-12T03:06:05;13.60;99.90
42715;DHT22;28351;51.480;5.706;2022-07-12T03:08:31;13.70;99.90
42715;DHT22;28351;51.480;5.706;2022-07-12T03:10:56;13.70;99.90
42715;DHT22;28351;51.480;5.706;2022-07-12T03:13:22;13.70;99.90
42715;DHT22;28351;51.480;5.706;2022-07-12T03:15:47;13.70;99.90
42715;DHT22;28351;51.480;5.706;2022-07-12T03:18:15;13.60;99.90
42715;DHT22;28351;51.480;5.706;2022-07-12T03:20:40;13.60;99.90
42715;DHT22;28351;51.480;5.706;2022-07-12T03:23:09;13.60;99.90
42715;DHT22;28351;51.480;5.706;2022-07-12T03:25:34;13.60;99.90
42715;DHT22;28351;51.480;5.706;2022-07-12T03:28:00;13.60;99.90
42715;DHT22;28351;51.480;5.706;2022-07-12T03:30:26;13.50;99.90
42715;DHT22;28351;51.480;5.706;2022-07-12T03:32:52;13.50;99.90
42715;DHT22;28351;51.480;5.706;2022-07-12T03:35:18;13.50;99.90
42715;DHT22;28351;51.480;5.706;2022-07-12T03:37:44;13.40;99.90
42715;DHT22;28351;51.480;5.706;2022-07-12T03:40:10;13.40;99.90
42715;DHT22;28351;51.480;5.706;2022-07-12T03:42:35;13.40;99.90
42715;DHT22;28351;51.480;5.706;2022-07-12T03:45:01;13.40;99.90
42715;DHT22;28351;51.480;5.706;2022-07-12T03:47:27;13.50;99.90
42715;DHT22;28351;51.480;5.706;2022-07-12T03:49:52;13.40;99.90
42715;DHT22;28351;51.480;5.706;2022-07-12T03:52:18;13.40;99.90
42715;DHT22;28351;51.480;5.706;2022-07-12T03:54:43;13.40;99.90
42715;DHT22;28351;51.480;5.706;2022-07-12T03:57:09;13.50;99.90
42715;DHT22;28351;51.480;5.706;2022-07-12T03:59:44;13.40;99.90
42715;DHT22;28351;51.480;5.706;2022-07-12T04:02:10;13.40;99.90
42715;DHT22;28351;51.480;5.706;2022-07-12T04:04:36;13.40;99.90
42715;DHT22;28351;51.480;5.706;2022-07-12T04:07:02;13.40;99.90
42715;DHT22;28351;51.480;5.706;2022-07-12T04:09:27;13.40;99.90
42715;DHT22;28351;51.480;5.706;2022-07-12T04:11:53;13.40;99.90
42715;DHT22;28351;51.480;5.706;2022-07-12T04:14:18;13.40;99.90
42715;DHT22;28351;51.480;5.706;2022-07-12T04:16:44;13.50;99.90
42715;DHT22;28351;51.480;5.706;2022-07-12T04:19:09;13.40;99.90
42715;DHT22;28351;51.480;5.706;2022-07-12T04:21:36;13.40;99.90
42715;DHT22;28351;51.480;5.706;2022-07-12T04:24:01;13.40;99.90
42715;DHT22;28351;51.480;5.706;2022-07-12T04:26:27;13.40;99.90
42715;DHT22;28351;51.480;5.706;2022-07-12T04:28:52;13.40;99.90
42715;DHT22;28351;51.480;5.706;2022-07-12T04:31:18;13.50;99.90
42715;DHT22;28351;51.480;5.706;2022-07-12T04:33:43;13.50;99.90
42715;DHT22;28351;51.480;5.706;2022-07-12T04:36:09;13.50;99.90
42715;DHT22;28351;51.480;5.706;2022-07-12T04:38:34;13.50;99.90
42715;DHT22;28351;51.480;5.706;2022-07-12T04:41:00;13.50;99.90
42715;DHT22;28351;51.480;5.706;2022-07-12T04:43:25;13.60;99.90
42715;DHT22;28351;51.480;5.706;2022-07-12T04:45:51;13.60;99.90
42715;DHT22;28351;51.480;5.706;2022-07-12T04:48:17;13.70;99.90
42715;DHT22;28351;51.480;5.706;2022-07-12T04:50:42;13.70;99.90
42715;DHT22;28351;51.480;5.706;2022-07-12T04:53:08;13.80;99.90
42715;DHT22;28351;51.480;5.706;2022-07-12T04:55:35;13.90;99.90
42715;DHT22;28351;51.480;5.706;2022-07-12T04:58:01;13.90;99.90
42715;DHT22;28351;51.480;5.706;2022-07-12T05:00:27;14.00;99.90
42715;DHT22;28351;51.480;5.706;2022-07-12T05:02:52;14.10;99.90
42715;DHT22;28351;51.480;5.706;2022-07-12T05:05:19;14.20;99.90
42715;DHT22;28351;51.480;5.706;2022-07-12T05:07:44;14.30;99.90
42715;DHT22;28351;51.480;5.706;2022-07-12T05:10:10;14.40;99.90
42715;DHT22;28351;51.480;5.706;2022-07-12T05:12:38;14.50;99.90
42715;DHT22;28351;51.480;5.706;2022-07-12T05:15:05;14.60;99.90
42715;DHT22;28351;51.480;5.706;2022-07-12T05:17:31;14.70;99.90
42715;DHT22;28351;51.480;5.706;2022-07-12T05:19:56;14.80;99.90
42715;DHT22;28351;51.480;5.706;2022-07-12T05:22:22;14.90;99.90
42715;DHT22;28351;51.480;5.706;2022-07-12T05:24:47;15.00;99.90
42715;DHT22;28351;51.480;5.706;2022-07-12T05:27:13;15.20;99.90
42715;DHT22;28351;51.480;5.706;2022-07-12T05:29:39;15.30;99.90
42715;DHT22;28351;51.480;5.706;2022-07-12T05:32:04;15.40;99.90
42715;DHT22;28351;51.480;5.706;2022-07-12T05:34:30;15.50;99.90
42715;DHT22;28351;51.480;5.706;2022-07-12T05:36:56;15.70;99.90
42715;DHT22;28351;51.480;5.706;2022-07-12T05:39:21;15.80;99.90
42715;DHT22;28351;51.480;5.706;2022-07-12T05:41:47;16.00;99.90
42715;DHT22;28351;51.480;5.706;2022-07-12T05:44:13;16.10;99.90
42715;DHT22;28351;51.480;5.706;2022-07-12T05:46:38;16.20;99.90
42715;DHT22;28351;51.480;5.706;2022-07-12T05:49:06;16.30;99.90
42715;DHT22;28351;51.480;5.706;2022-07-12T05:51:31;16.50;99.90
42715;DHT22;28351;51.480;5.706;2022-07-12T05:54:15;16.60;99.90
42715;DHT22;28351;51.480;5.706;2022-07-12T05:56:41;16.80;99.90
42715;DHT22;28351;51.480;5.706;2022-07-12T05:59:06;17.00;99.90
42715;DHT22;28351;51.480;5.706;2022-07-12T06:01:32;17.20;99.90
42715;DHT22;28351;51.480;5.706;2022-07-12T06:04:00;17.30;99.90
42715;DHT22;28351;51.480;5.706;2022-07-12T06:06:26;17.50;99.90
42715;DHT22;28351;51.480;5.706;2022-07-12T06:08:52;17.60;99.90
42715;DHT22;28351;51.480;5.706;2022-07-12T06:11:20;17.70;99.90
42715;DHT22;28351;51.480;5.706;2022-07-12T06:13:46;17.70;99.90
42715;DHT22;28351;51.480;5.706;2022-07-12T06:16:11;17.80;99.90
42715;DHT22;28351;51.480;5.706;2022-07-12T06:18:37;17.80;99.90
42715;DHT22;28351;51.480;5.706;2022-07-12T06:21:06;17.90;99.90
42715;DHT22;28351;51.480;5.706;2022-07-12T06:23:31;18.10;99.90
42715;DHT22;28351;51.480;5.706;2022-07-12T06:25:56;18.20;99.90
42715;DHT22;28351;51.480;5.706;2022-07-12T06:28:22;18.40;99.90
42715;DHT22;28351;51.480;5.706;2022-07-12T06:30:47;18.50;99.90
42715;DHT22;28351;51.480;5.706;2022-07-12T06:33:13;18.70;99.90
42715;DHT22;28351;51.480;5.706;2022-07-12T06:35:38;18.90;99.90
42715;DHT22;28351;51.480;5.706;2022-07-12T06:38:04;19.10;99.90
42715;DHT22;28351;51.480;5.706;2022-07-12T06:40:29;19.20;99.90
42715;DHT22;28351;51.480;5.706;2022-07-12T06:42:55;19.40;99.90
42715;DHT22;28351;51.480;5.706;2022-07-12T06:45:20;19.50;99.90
42715;DHT22;28351;51.480;5.706;2022-07-12T06:47:46;19.60;99.90
42715;DHT22;28351;51.480;5.706;2022-07-12T06:50:11;19.70;99.90
42715;DHT22;28351;51.480;5.706;2022-07-12T06:52:37;19.80;99.90
42715;DHT22;28351;51.480;5.706;2022-07-12T06:55:02;19.80;99.90
42715;DHT22;28351;51.480;5.706;2022-07-12T06:57:28;19.90;99.90
42715;DHT22;28351;51.480;5.706;2022-07-12T07:00:01;19.90;99.90
42715;DHT22;28351;51.480;5.706;2022-07-12T07:02:29;19.90;99.90
42715;DHT22;28351;51.480;5.706;2022-07-12T07:04:54;20.10;99.90
42715;DHT22;28351;51.480;5.706;2022-07-12T07:07:20;20.20;99.90
42715;DHT22;28351;51.480;5.706;2022-07-12T07:09:45;20.30;99.90
42715;DHT22;28351;51.480;5.706;2022-07-12T07:12:11;20.40;99.90
42715;DHT22;28351;51.480;5.706;2022-07-12T07:14:36;20.60;99.90
42715;DHT22;28351;51.480;5.706;2022-07-12T07:17:02;20.70;99.90
42715;DHT22;28351;51.480;5.706;2022-07-12T07:19:27;20.70;99.90
42715;DHT22;28351;51.480;5.706;2022-07-12T07:21:56;20.80;99.90
42715;DHT22;28351;51.480;5.706;2022-07-12T07:24:21;20.80;99.90
42715;DHT22;28351;51.480;5.706;2022-07-12T07:26:48;20.80;99.90
42715;DHT22;28351;51.480;5.706;2022-07-12T07:29:13;21.00;99.90
42715;DHT22;28351;51.480;5.706;2022-07-12T07:31:57;21.00;99.90
42715;DHT22;28351;51.480;5.706;2022-07-12T07:34:22;21.10;99.90
42715;DHT22;28351;51.480;5.706;2022-07-12T07:36:51;21.20;99.90
42715;DHT22;28351;51.480;5.706;2022-07-12T07:39:18;21.30;99.90
42715;DHT22;28351;51.480;5.706;2022-07-12T07:41:43;21.40;99.90
42715;DHT22;28351;51.480;5.706;2022-07-12T07:44:08;21.50;99.90
42715;DHT22;28351;51.480;5.706;2022-07-12T07:46:34;21.60;99.90
42715;DHT22;28351;51.480;5.706;2022-07-12T07:49:00;21.60;99.90
42715;DHT22;28351;51.480;5.706;2022-07-12T07:51:25;21.60;99.90
42715;DHT22;28351;51.480;5.706;2022-07-12T07:53:51;21.70;99.90
42715;DHT22;28351;51.480;5.706;2022-07-12T07:56:16;21.70;99.90
42715;DHT22;28351;51.480;5.706;2022-07-12T07:58:41;21.80;99.90
42715;DHT22;28351;51.480;5.706;2022-07-12T08:01:07;22.00;99.90
42715;DHT22;28351;51.480;5.706;2022-07-12T08:03:32;22.20;99.90
42715;DHT22;28351;51.480;5.706;2022-07-12T08:05:58;22.50;99.90
42715;DHT22;28351;51.480;5.706;2022-07-12T08:08:26;22.80;99.90
42715;DHT22;28351;51.480;5.706;2022-07-12T08:10:51;23.10;99.90
42715;DHT22;28351;51.480;5.706;2022-07-12T08:13:17;23.20;99.90
42715;DHT22;28351;51.480;5.706;2022-07-12T08:15:42;23.50;99.90
42715;DHT22;28351;51.480;5.706;2022-07-12T08:18:08;23.70;99.90
42715;DHT22;28351;51.480;5.706;2022-07-12T08:20:33;23.80;99.90
42715;DHT22;28351;51.480;5.706;2022-07-12T08:22:59;23.80;99.90
42715;DHT22;28351;51.480;5.706;2022-07-12T08:25:24;23.80;99.90
42715;DHT22;28351;51.480;5.706;2022-07-12T08:27:50;24.00;99.90
42715;DHT22;28351;51.480;5.706;2022-07-12T08:30:15;24.00;99.90
42715;DHT22;28351;51.480;5.706;2022-07-12T08:32:44;24.10;99.90
42715;DHT22;28351;51.480;5.706;2022-07-12T08:35:10;24.30;99.90
42715;DHT22;28351;51.480;5.706;2022-07-12T08:37:35;24.50;99.90
42715;DHT22;28351;51.480;5.706;2022-07-12T08:40:59;24.60;99.90
42715;DHT22;28351;51.480;5.706;2022-07-12T08:43:25;24.70;99.90
42715;DHT22;28351;51.480;5.706;2022-07-12T08:45:50;24.80;99.90
42715;DHT22;28351;51.480;5.706;2022-07-12T08:48:16;25.00;99.90
42715;DHT22;28351;51.480;5.706;2022-07-12T08:50:41;25.20;99.90
42715;DHT22;28351;51.480;5.706;2022-07-12T08:53:12;25.30;99.90
42715;DHT22;28351;51.480;5.706;2022-07-12T08:55:38;25.50;99.90
42715;DHT22;28351;51.480;5.706;2022-07-12T08:58:05;25.40;99.90
42715;DHT22;28351;51.480;5.706;2022-07-12T09:00:39;25.20;99.90
42715;DHT22;28351;51.480;5.706;2022-07-12T09:03:05;24.90;99.90
42715;DHT22;28351;51.480;5.706;2022-07-12T09:05:33;24.90;99.90
42715;DHT22;28351;51.480;5.706;2022-07-12T09:08:09;24.90;99.90
42715;DHT22;28351;51.480;5.706;2022-07-12T09:13:17;24.60;99.90
42715;DHT22;28351;51.480;5.706;2022-07-12T09:15:43;24.60;99.90
42715;DHT22;28351;51.480;5.706;2022-07-12T09:18:09;24.80;99.90
42715;DHT22;28351;51.480;5.706;2022-07-12T09:20:52;24.70;99.90
42715;DHT22;28351;51.480;5.706;2022-07-12T09:23:18;24.70;99.90
42715;DHT22;28351;51.480;5.706;2022-07-12T09:25:44;24.60;99.90
42715;DHT22;28351;51.480;5.706;2022-07-12T09:28:10;24.60;99.90
42715;DHT22;28351;51.480;5.706;2022-07-12T09:30:46;24.50;99.90
42715;DHT22;28351;51.480;5.706;2022-07-12T09:33:18;24.40;99.90
42715;DHT22;28351;51.480;5.706;2022-07-12T09:36:03;24.70;99.90
42715;DHT22;28351;51.480;5.706;2022-07-12T09:38:36;25.00;99.90
42715;DHT22;28351;51.480;5.706;2022-07-12T09:41:06;25.20;99.90
42715;DHT22;28351;51.480;5.706;2022-07-12T09:43:32;25.10;99.90
42715;DHT22;28351;51.480;5.706;2022-07-12T09:45:59;25.20;99.90
42715;DHT22;28351;51.480;5.706;2022-07-12T09:48:26;25.40;99.90
42715;DHT22;28351;51.480;5.706;2022-07-12T09:50:56;25.70;99.90
42715;DHT22;28351;51.480;5.706;2022-07-12T09:53:31;25.80;99.90
42715;DHT22;28351;51.480;5.706;2022-07-12T09:56:06;26.20;99.90
42715;DHT22;28351;51.480;5.706;2022-07-12T09:58:55;26.40;99.90
42715;DHT22;28351;51.480;5.706;2022-07-12T10:01:22;26.70;99.90
42715;DHT22;28351;51.480;5.706;2022-07-12T10:03:51;26.90;99.90
42715;DHT22;28351;51.480;5.706;2022-07-12T10:06:26;26.70;99.90
42715;DHT22;28351;51.480;5.706;2022-07-12T10:08:52;26.60;99.90
42715;DHT22;28351;51.480;5.706;2022-07-12T10:11:19;26.70;99.90
42715;DHT22;28351;51.480;5.706;2022-07-12T10:13:46;26.80;99.90
42715;DHT22;28351;51.480;5.706;2022-07-12T10:16:14;27.00;99.90
42715;DHT22;28351;51.480;5.706;2022-07-12T10:18:40;27.10;99.90
42715;DHT22;28351;51.480;5.706;2022-07-12T10:21:26;26.90;99.90
42715;DHT22;28351;51.480;5.706;2022-07-12T10:23:51;26.80;99.90
42715;DHT22;28351;51.480;5.706;2022-07-12T10:26:24;26.70;99.90
42715;DHT22;28351;51.480;5.706;2022-07-12T10:29:06;26.90;99.90
42715;DHT22;28351;51.480;5.706;2022-07-12T10:31:39;27.10;99.90
42715;DHT22;28351;51.480;5.706;2022-07-12T10:39:20;27.70;99.90
42715;DHT22;28351;51.480;5.706;2022-07-12T10:44:40;28.10;99.90
42715;DHT22;28351;51.480;5.706;2022-07-12T10:47:07;28.30;99.90
42715;DHT22;28351;51.480;5.706;2022-07-12T10:49:34;28.60;99.90
42715;DHT22;28351;51.480;5.706;2022-07-12T10:52:14;28.40;99.90
42715;DHT22;28351;51.480;5.706;2022-07-12T10:54:41;29.20;99.90
42715;DHT22;28351;51.480;5.706;2022-07-12T10:57:07;29.60;99.90
42715;DHT22;28351;51.480;5.706;2022-07-12T10:59:37;30.00;99.90
42715;DHT22;28351;51.480;5.706;2022-07-12T11:02:03;29.90;99.90
42715;DHT22;28351;51.480;5.706;2022-07-12T11:04:30;29.90;99.90
42715;DHT22;28351;51.480;5.706;2022-07-12T11:07:00;30.30;99.90
42715;DHT22;28351;51.480;5.706;2022-07-12T11:09:26;30.50;99.90
42715;DHT22;28351;51.480;5.706;2022-07-12T11:11:54;30.30;99.30
42715;DHT22;28351;51.480;5.706;2022-07-12T11:14:27;30.60;99.00
42715;DHT22;28351;51.480;5.706;2022-07-12T11:16:58;31.10;99.00
42715;DHT22;28351;51.480;5.706;2022-07-12T11:19:27;31.60;99.30
42715;DHT22;28351;51.480;5.706;2022-07-12T11:21:53;32.30;97.90
42715;DHT22;28351;51.480;5.706;2022-07-12T11:24:27;33.00;98.50
42715;DHT22;28351;51.480;5.706;2022-07-12T11:26:53;33.50;97.90
42715;DHT22;28351;51.480;5.706;2022-07-12T11:29:19;33.30;96.80
42715;DHT22;28351;51.480;5.706;2022-07-12T11:31:46;32.60;96.60
42715;DHT22;28351;51.480;5.706;2022-07-12T11:34:25;31.90;97.10
42715;DHT22;28351;51.480;5.706;2022-07-12T11:36:55;32.30;96.50
42715;DHT22;28351;51.480;5.706;2022-07-12T11:39:38;32.60;96.50
42715;DHT22;28351;51.480;5.706;2022-07-12T11:42:05;33.40;96.40
42715;DHT22;28351;51.480;5.706;2022-07-12T11:44:50;33.80;95.70
42715;DHT22;28351;51.480;5.706;2022-07-12T11:47:18;33.40;93.40
42715;DHT22;28351;51.480;5.706;2022-07-12T11:49:50;33.70;93.50
42715;DHT22;28351;51.480;5.706;2022-07-12T11:52:17;34.30;93.80
42715;DHT22;28351;51.480;5.706;2022-07-12T11:54:44;34.50;93.70
42715;DHT22;28351;51.480;5.706;2022-07-12T11:57:11;35.00;93.40
42715;DHT22;28351;51.480;5.706;2022-07-12T11:59:37;35.20;93.60
42715;DHT22;28351;51.480;5.706;2022-07-12T12:02:12;34.60;93.50
42715;DHT22;28351;51.480;5.706;2022-07-12T12:04:48;34.40;92.70
42715;DHT22;28351;51.480;5.706;2022-07-12T12:07:14;34.10;92.50
42715;DHT22;28351;51.480;5.706;2022-07-12T12:09:59;34.10;92.20
42715;DHT22;28351;51.480;5.706;2022-07-12T12:15:06;35.90;91.60
42715;DHT22;28351;51.480;5.706;2022-07-12T12:17:33;36.60;90.00
42715;DHT22;28351;51.480;5.706;2022-07-12T12:20:17;36.60;90.30
42715;DHT22;28351;51.480;5.706;2022-07-12T12:22:46;36.10;87.60
42715;DHT22;28351;51.480;5.706;2022-07-12T12:25:12;36.20;90.40
42715;DHT22;28351;51.480;5.706;2022-07-12T12:32:19;37.50;86.00
42715;DHT22;28351;51.480;5.706;2022-07-12T12:35:04;37.30;84.80
42715;DHT22;28351;51.480;5.706;2022-07-12T12:37:30;37.30;86.10
42715;DHT22;28351;51.480;5.706;2022-07-12T12:39:56;37.50;87.30
42715;DHT22;28351;51.480;5.706;2022-07-12T12:42:25;37.10;85.50
42715;DHT22;28351;51.480;5.706;2022-07-12T12:44:53;36.70;86.70
42715;DHT22;28351;51.480;5.706;2022-07-12T12:47:21;36.70;87.00
42715;DHT22;28351;51.480;5.706;2022-07-12T12:49:59;37.00;86.70
42715;DHT22;28351;51.480;5.706;2022-07-12T12:52:29;37.20;86.90
42715;DHT22;28351;51.480;5.706;2022-07-12T12:54:56;37.10;86.10
42715;DHT22;28351;51.480;5.706;2022-07-12T12:57:23;37.30;86.50
42715;DHT22;28351;51.480;5.706;2022-07-12T12:59:51;37.30;87.20
42715;DHT22;28351;51.480;5.706;2022-07-12T13:02:17;37.10;86.80
42715;DHT22;28351;51.480;5.706;2022-07-12T13:04:46;36.90;85.90
42715;DHT22;28351;51.480;5.706;2022-07-12T13:07:12;36.80;89.30
42715;DHT22;28351;51.480;5.706;2022-07-12T13:09:38;36.90;89.50
42715;DHT22;28351;51.480;5.706;2022-07-12T13:12:04;36.30;89.30
42715;DHT22;28351;51.480;5.706;2022-07-12T13:14:29;35.90;90.00
42715;DHT22;28351;51.480;5.706;2022-07-12T13:16:55;35.20;87.50
42715;DHT22;28351;51.480;5.706;2022-07-12T13:19:21;35.40;87.50
42715;DHT22;28351;51.480;5.706;2022-07-12T13:21:47;35.60;89.60
42715;DHT22;28351;51.480;5.706;2022-07-12T13:24:13;36.40;89.40
42715;DHT22;28351;51.480;5.706;2022-07-12T13:26:38;37.10;89.30
42715;DHT22;28351;51.480;5.706;2022-07-12T13:29:04;36.00;89.40
42715;DHT22;28351;51.480;5.706;2022-07-12T13:31:30;36.20;87.70
42715;DHT22;28351;51.480;5.706;2022-07-12T13:33:55;35.80;88.50
42715;DHT22;28351;51.480;5.706;2022-07-12T13:36:21;36.30;88.60
42715;DHT22;28351;51.480;5.706;2022-07-12T13:38:50;36.90;88.10
42715;DHT22;28351;51.480;5.706;2022-07-12T13:41:16;36.80;86.00
42715;DHT22;28351;51.480;5.706;2022-07-12T13:43:41;36.40;85.50
42715;DHT22;28351;51.480;5.706;2022-07-12T13:46:07;35.70;85.30
42715;DHT22;28351;51.480;5.706;2022-07-12T13:48:33;36.70;84.40
42715;DHT22;28351;51.480;5.706;2022-07-12T13:51:01;36.90;84.00
42715;DHT22;28351;51.480;5.706;2022-07-12T13:53:27;36.60;84.90
42715;DHT22;28351;51.480;5.706;2022-07-12T13:55:52;37.00;82.20
42715;DHT22;28351;51.480;5.706;2022-07-12T13:58:18;37.60;84.50
42715;DHT22;28351;51.480;5.706;2022-07-12T14:00:44;38.40;81.20
42715;DHT22;28351;51.480;5.706;2022-07-12T14:03:10;38.90;82.90
42715;DHT22;28351;51.480;5.706;2022-07-12T14:05:36;37.40;80.00
42715;DHT22;28351;51.480;5.706;2022-07-12T14:08:02;37.80;81.80
42715;DHT22;28351;51.480;5.706;2022-07-12T14:10:34;38.30;80.90
42715;DHT22;28351;51.480;5.706;2022-07-12T14:13:01;38.50;80.70
42715;DHT22;28351;51.480;5.706;2022-07-12T14:15:27;38.50;80.00
42715;DHT22;28351;51.480;5.706;2022-07-12T14:18:06;38.60;78.10
42715;DHT22;28351;51.480;5.706;2022-07-12T14:20:32;37.90;80.10
42715;DHT22;28351;51.480;5.706;2022-07-12T14:22:59;36.80;78.90
42715;DHT22;28351;51.480;5.706;2022-07-12T14:25:24;36.00;80.70
42715;DHT22;28351;51.480;5.706;2022-07-12T14:27:50;35.40;82.10
42715;DHT22;28351;51.480;5.706;2022-07-12T14:30:16;34.80;81.80
42715;DHT22;28351;51.480;5.706;2022-07-12T14:32:45;34.90;81.70
42715;DHT22;28351;51.480;5.706;2022-07-12T14:35:10;34.60;83.50
42715;DHT22;28351;51.480;5.706;2022-07-12T14:37:36;35.00;83.70
42715;DHT22;28351;51.480;5.706;2022-07-12T14:40:03;34.60;82.90
42715;DHT22;28351;51.480;5.706;2022-07-12T14:42:29;34.60;81.80
42715;DHT22;28351;51.480;5.706;2022-07-12T14:44:54;34.50;81.40
42715;DHT22;28351;51.480;5.706;2022-07-12T14:47:21;34.20;83.00
42715;DHT22;28351;51.480;5.706;2022-07-12T14:49:46;33.80;82.60
42715;DHT22;28351;51.480;5.706;2022-07-12T14:52:15;33.90;84.00
42715;DHT22;28351;51.480;5.706;2022-07-12T14:54:41;33.40;84.20
42715;DHT22;28351;51.480;5.706;2022-07-12T14:57:07;33.00;83.60
42715;DHT22;28351;51.480;5.706;2022-07-12T14:59:33;32.70;84.90
42715;DHT22;28351;51.480;5.706;2022-07-12T15:01:59;32.50;84.60
42715;DHT22;28351;51.480;5.706;2022-07-12T15:04:24;32.40;85.70
42715;DHT22;28351;51.480;5.706;2022-07-12T15:06:50;32.40;86.00
42715;DHT22;28351;51.480;5.706;2022-07-12T15:09:15;32.40;90.40
42715;DHT22;28351;51.480;5.706;2022-07-12T15:11:41;32.00;85.10
42715;DHT22;28351;51.480;5.706;2022-07-12T15:14:07;31.60;85.20
42715;DHT22;28351;51.480;5.706;2022-07-12T15:16:33;31.80;86.70
42715;DHT22;28351;51.480;5.706;2022-07-12T15:18:58;32.10;88.80
42715;DHT22;28351;51.480;5.706;2022-07-12T15:21:24;32.00;87.00
42715;DHT22;28351;51.480;5.706;2022-07-12T15:23:50;31.70;86.00
42715;DHT22;28351;51.480;5.706;2022-07-12T15:26:16;31.80;87.30
42715;DHT22;28351;51.480;5.706;2022-07-12T15:28:51;31.90;86.60
42715;DHT22;28351;51.480;5.706;2022-07-12T15:31:17;31.70;86.90
42715;DHT22;28351;51.480;5.706;2022-07-12T15:33:43;31.90;87.60
42715;DHT22;28351;51.480;5.706;2022-07-12T15:36:10;32.00;87.80
42715;DHT22;28351;51.480;5.706;2022-07-12T15:38:35;32.20;86.80
42715;DHT22;28351;51.480;5.706;2022-07-12T15:41:01;32.10;86.40
42715;DHT22;28351;51.480;5.706;2022-07-12T15:43:27;32.40;89.00
42715;DHT22;28351;51.480;5.706;2022-07-12T15:45:52;32.30;86.40
42715;DHT22;28351;51.480;5.706;2022-07-12T15:48:18;32.20;86.30
42715;DHT22;28351;51.480;5.706;2022-07-12T15:50:43;31.80;84.40